sensor_id;sensor_type;location;lat;lon;timestamp;P1;durP1;ratioP1;P2;durP2;ratioP2
75603;SDS011;64187;51.010;13.792;2023-04-03T00:02:48;3.92;;;1.77;;
75603;SDS011;64187;51.010;13.792;2023-04-03T00:07:48;3.13;;;1.40;;
75603;SDS011;64187;51.010;13.792;2023-04-03T00:12:48;2.53;;;1.10;;
75603;SDS011;64187;51.010;13.792;2023-04-03T00:17:47;2.70;;;2.10;;
75603;SDS011;64187;51.010;13.792;2023-04-03T00:22:46;4.70;;;1.25;;
75603;SDS011;64187;51.010;13.792;2023-04-03T00:27:45;3.50;;;1.08;;
75603;SDS011;64187;51.010;13.792;2023-04-03T00:32:44;4.63;;;1.23;;
75603;SDS011;64187;51.010;13.792;2023-04-03T00:37:43;3.60;;;1.08;;
75603;SDS011;64187;51.010;13.792;2023-04-03T00:42:42;1.77;;;1.17;;
75603;SDS011;64187;51.010;13.792;2023-04-03T00:47:42;2.60;;;1.00;;
75603;SDS011;64187;51.010;13.792;2023-04-03T00:52:41;5.85;;;1.42;;
75603;SDS011;64187;51.010;13.792;2023-04-03T00:57:40;2.10;;;0.88;;
75603;SDS011;64187;51.010;13.792;2023-04-03T01:02:40;1.35;;;1.00;;
75603;SDS011;64187;51.010;13.792;2023-04-03T01:07:41;3.25;;;1.88;;
75603;SDS011;64187;51.010;13.792;2023-04-03T01:12:41;4.35;;;0.95;;
75603;SDS011;64187;51.010;13.792;2023-04-03T01:17:49;5.25;;;1.38;;
75603;SDS011;64187;51.010;13.792;2023-04-03T01:28:29;3.60;;;1.67;;
75603;SDS011;64187;51.010;13.792;2023-04-03T01:33:32;2.85;;;0.95;;
75603;SDS011;64187;51.010;13.792;2023-04-03T01:38:32;1.88;;;1.20;;
75603;SDS011;64187;51.010;13.792;2023-04-03T01:43:31;2.25;;;1.35;;
75603;SDS011;64187;51.010;13.792;2023-04-03T01:48:30;3.20;;;1.05;;
75603;SDS011;64187;51.010;13.792;2023-04-03T01:53:29;1.80;;;1.08;;
75603;SDS011;64187;51.010;13.792;2023-04-03T01:58:28;4.47;;;1.27;;
75603;SDS011;64187;51.010;13.792;2023-04-03T02:03:28;4.78;;;1.27;;
75603;SDS011;64187;51.010;13.792;2023-04-03T02:08:27;2.58;;;1.35;;
75603;SDS011;64187;51.010;13.792;2023-04-03T02:13:25;3.17;;;1.00;;
75603;SDS011;64187;51.010;13.792;2023-04-03T02:18:24;3.58;;;1.25;;
75603;SDS011;64187;51.010;13.792;2023-04-03T02:23:23;4.43;;;1.25;;
75603;SDS011;64187;51.010;13.792;2023-04-03T02:28:22;3.55;;;1.40;;
75603;SDS011;64187;51.010;13.792;2023-04-03T02:33:20;2.30;;;1.00;;
75603;SDS011;64187;51.010;13.792;2023-04-03T02:38:21;2.88;;;1.10;;
75603;SDS011;64187;51.010;13.792;2023-04-03T02:43:21;2.90;;;1.20;;
75603;SDS011;64187;51.010;13.792;2023-04-03T02:48:20;5.55;;;1.08;;
75603;SDS011;64187;51.010;13.792;2023-04-03T02:53:19;4.55;;;1.48;;
75603;SDS011;64187;51.010;13.792;2023-04-03T02:58:20;2.28;;;1.20;;
75603;SDS011;64187;51.010;13.792;2023-04-03T03:03:19;3.00;;;1.40;;
75603;SDS011;64187;51.010;13.792;2023-04-03T03:08:18;2.88;;;1.15;;
75603;SDS011;64187;51.010;13.792;2023-04-03T03:13:18;2.92;;;1.27;;
75603;SDS011;64187;51.010;13.792;2023-04-03T03:18:18;3.92;;;1.08;;
75603;SDS011;64187;51.010;13.792;2023-04-03T03:23:17;3.50;;;1.50;;
75603;SDS011;64187;51.010;13.792;2023-04-03T03:28:16;2.33;;;1.20;;
75603;SDS011;64187;51.010;13.792;2023-04-03T03:33:15;3.70;;;1.30;;
75603;SDS011;64187;51.010;13.792;2023-04-03T03:38:15;2.58;;;1.15;;
75603;SDS011;64187;51.010;13.792;2023-04-03T03:43:14;5.50;;;1.60;;
75603;SDS011;64187;51.010;13.792;2023-04-03T03:48:14;3.60;;;1.45;;
75603;SDS011;64187;51.010;13.792;2023-04-03T03:53:13;3.67;;;0.88;;
75603;SDS011;64187;51.010;13.792;2023-04-03T03:58:14;2.55;;;0.75;;
75603;SDS011;64187;51.010;13.792;2023-04-03T04:03:13;5.00;;;1.40;;
75603;SDS011;64187;51.010;13.792;2023-04-03T04:08:13;3.55;;;1.30;;
75603;SDS011;64187;51.010;13.792;2023-04-03T04:13:15;2.63;;;1.13;;
75603;SDS011;64187;51.010;13.792;2023-04-03T04:18:13;3.60;;;1.55;;
75603;SDS011;64187;51.010;13.792;2023-04-03T04:23:16;4.45;;;1.33;;
75603;SDS011;64187;51.010;13.792;2023-04-03T04:28:16;3.85;;;1.33;;
75603;SDS011;64187;51.010;13.792;2023-04-03T04:33:16;2.78;;;1.25;;
75603;SDS011;64187;51.010;13.792;2023-04-03T04:38:16;2.45;;;1.27;;
75603;SDS011;64187;51.010;13.792;2023-04-03T04:43:15;4.22;;;1.33;;
75603;SDS011;64187;51.010;13.792;2023-04-03T04:48:17;3.60;;;2.22;;
75603;SDS011;64187;51.010;13.792;2023-04-03T04:53:16;5.43;;;2.00;;
75603;SDS011;64187;51.010;13.792;2023-04-03T04:58:15;4.57;;;1.70;;
75603;SDS011;64187;51.010;13.792;2023-04-03T05:03:14;2.58;;;1.50;;
75603;SDS011;64187;51.010;13.792;2023-04-03T05:08:14;3.67;;;1.35;;
75603;SDS011;64187;51.010;13.792;2023-04-03T05:13:14;3.70;;;1.45;;
75603;SDS011;64187;51.010;13.792;2023-04-03T05:18:13;1.98;;;0.95;;
75603;SDS011;64187;51.010;13.792;2023-04-03T05:23:12;2.72;;;1.83;;
75603;SDS011;64187;51.010;13.792;2023-04-03T05:28:12;2.33;;;1.10;;
75603;SDS011;64187;51.010;13.792;2023-04-03T05:33:11;4.05;;;1.10;;
75603;SDS011;64187;51.010;13.792;2023-04-03T05:38:18;2.92;;;1.95;;
75603;SDS011;64187;51.010;13.792;2023-04-03T05:43:19;2.55;;;1.20;;
75603;SDS011;64187;51.010;13.792;2023-04-03T05:48:18;5.63;;;1.45;;
75603;SDS011;64187;51.010;13.792;2023-04-03T05:53:22;2.67;;;1.15;;
75603;SDS011;64187;51.010;13.792;2023-04-03T05:58:28;5.25;;;1.52;;
75603;SDS011;64187;51.010;13.792;2023-04-03T06:03:27;5.60;;;2.13;;
75603;SDS011;64187;51.010;13.792;2023-04-03T06:08:26;2.03;;;1.02;;
75603;SDS011;64187;51.010;13.792;2023-04-03T06:13:25;2.55;;;1.35;;
75603;SDS011;64187;51.010;13.792;2023-04-03T06:18:24;3.95;;;1.50;;
75603;SDS011;64187;51.010;13.792;2023-04-03T06:23:23;2.08;;;1.63;;
75603;SDS011;64187;51.010;13.792;2023-04-03T06:28:22;2.85;;;1.67;;
75603;SDS011;64187;51.010;13.792;2023-04-03T06:33:20;4.63;;;1.67;;
75603;SDS011;64187;51.010;13.792;2023-04-03T06:38:19;4.78;;;2.13;;
75603;SDS011;64187;51.010;13.792;2023-04-03T06:43:18;2.50;;;1.55;;
75603;SDS011;64187;51.010;13.792;2023-04-03T06:48:17;4.05;;;1.70;;
75603;SDS011;64187;51.010;13.792;2023-04-03T06:53:16;5.00;;;1.83;;
75603;SDS011;64187;51.010;13.792;2023-04-03T06:58:16;3.78;;;1.88;;
75603;SDS011;64187;51.010;13.792;2023-04-03T07:03:17;4.30;;;1.70;;
75603;SDS011;64187;51.010;13.792;2023-04-03T07:08:18;2.45;;;1.35;;
75603;SDS011;64187;51.010;13.792;2023-04-03T07:13:16;2.83;;;1.50;;
75603;SDS011;64187;51.010;13.792;2023-04-03T07:18:15;3.95;;;2.38;;
75603;SDS011;64187;51.010;13.792;2023-04-03T07:23:15;4.72;;;2.00;;
75603;SDS011;64187;51.010;13.792;2023-04-03T07:28:15;4.05;;;1.77;;
75603;SDS011;64187;51.010;13.792;2023-04-03T07:33:15;4.85;;;2.00;;
75603;SDS011;64187;51.010;13.792;2023-04-03T07:38:15;3.42;;;1.27;;
75603;SDS011;64187;51.010;13.792;2023-04-03T07:43:15;5.38;;;1.83;;
75603;SDS011;64187;51.010;13.792;2023-04-03T07:48:14;3.95;;;1.77;;
75603;SDS011;64187;51.010;13.792;2023-04-03T07:53:15;4.25;;;1.52;;
75603;SDS011;64187;51.010;13.792;2023-04-03T07:58:16;4.75;;;1.70;;
75603;SDS011;64187;51.010;13.792;2023-04-03T08:03:16;2.85;;;1.50;;
75603;SDS011;64187;51.010;13.792;2023-04-03T08:08:16;4.60;;;1.77;;
75603;SDS011;64187;51.010;13.792;2023-04-03T08:13:19;3.35;;;1.80;;
75603;SDS011;64187;51.010;13.792;2023-04-03T08:18:18;5.88;;;1.90;;
75603;SDS011;64187;51.010;13.792;2023-04-03T08:23:20;7.13;;;1.73;;
75603;SDS011;64187;51.010;13.792;2023-04-03T08:28:19;5.57;;;2.30;;
75603;SDS011;64187;51.010;13.792;2023-04-03T08:33:18;3.55;;;1.63;;
75603;SDS011;64187;51.010;13.792;2023-04-03T08:38:16;3.88;;;1.80;;
75603;SDS011;64187;51.010;13.792;2023-04-03T08:43:21;3.42;;;1.95;;
75603;SDS011;64187;51.010;13.792;2023-04-03T08:48:35;2.97;;;1.85;;
75603;SDS011;64187;51.010;13.792;2023-04-03T08:53:40;10.82;;;4.78;;
75603;SDS011;64187;51.010;13.792;2023-04-03T08:59:03;4.63;;;2.17;;
75603;SDS011;64187;51.010;13.792;2023-04-03T09:04:10;4.30;;;1.30;;
75603;SDS011;64187;51.010;13.792;2023-04-03T09:09:15;2.53;;;1.48;;
75603;SDS011;64187;51.010;13.792;2023-04-03T09:14:37;2.65;;;1.95;;
75603;SDS011;64187;51.010;13.792;2023-04-03T09:19:58;2.88;;;1.50;;
75603;SDS011;64187;51.010;13.792;2023-04-03T09:25:22;3.90;;;1.70;;
75603;SDS011;64187;51.010;13.792;2023-04-03T09:30:22;4.50;;;1.67;;
75603;SDS011;64187;51.010;13.792;2023-04-03T09:40:38;3.97;;;1.92;;
75603;SDS011;64187;51.010;13.792;2023-04-03T09:45:38;3.42;;;1.48;;
75603;SDS011;64187;51.010;13.792;2023-04-03T09:50:36;3.47;;;1.20;;
75603;SDS011;64187;51.010;13.792;2023-04-03T09:55:41;4.00;;;1.40;;
75603;SDS011;64187;51.010;13.792;2023-04-03T10:00:42;4.53;;;1.10;;
75603;SDS011;64187;51.010;13.792;2023-04-03T10:05:41;3.42;;;1.30;;
75603;SDS011;64187;51.010;13.792;2023-04-03T10:10:44;4.07;;;1.23;;
75603;SDS011;64187;51.010;13.792;2023-04-03T10:16:07;2.05;;;0.85;;
75603;SDS011;64187;51.010;13.792;2023-04-03T10:21:15;3.08;;;1.27;;
75603;SDS011;64187;51.010;13.792;2023-04-03T10:26:29;1.70;;;0.95;;
75603;SDS011;64187;51.010;13.792;2023-04-03T10:31:41;1.65;;;1.17;;
75603;SDS011;64187;51.010;13.792;2023-04-03T10:53:08;1.60;;;1.00;;
75603;SDS011;64187;51.010;13.792;2023-04-03T10:58:21;2.80;;;0.95;;
75603;SDS011;64187;51.010;13.792;2023-04-03T11:03:35;2.50;;;1.02;;
75603;SDS011;64187;51.010;13.792;2023-04-03T11:08:46;2.85;;;1.00;;
75603;SDS011;64187;51.010;13.792;2023-04-03T11:13:52;2.35;;;1.00;;
75603;SDS011;64187;51.010;13.792;2023-04-03T11:19:20;1.60;;;1.30;;
75603;SDS011;64187;51.010;13.792;2023-04-03T11:24:27;2.83;;;1.30;;
75603;SDS011;64187;51.010;13.792;2023-04-03T11:29:31;1.85;;;1.05;;
75603;SDS011;64187;51.010;13.792;2023-04-03T11:34:37;1.70;;;1.13;;
75603;SDS011;64187;51.010;13.792;2023-04-03T11:39:45;2.05;;;1.08;;
75603;SDS011;64187;51.010;13.792;2023-04-03T11:44:51;3.28;;;1.00;;
75603;SDS011;64187;51.010;13.792;2023-04-03T11:50:30;1.10;;;0.80;;
75603;SDS011;64187;51.010;13.792;2023-04-03T12:05:51;1.23;;;1.02;;
75603;SDS011;64187;51.010;13.792;2023-04-03T12:11:35;2.10;;;1.08;;
75603;SDS011;64187;51.010;13.792;2023-04-03T12:26:48;3.13;;;1.38;;
75603;SDS011;64187;51.010;13.792;2023-04-03T12:37:03;3.50;;;1.38;;
75603;SDS011;64187;51.010;13.792;2023-04-03T12:42:21;1.73;;;1.02;;
75603;SDS011;64187;51.010;13.792;2023-04-03T12:47:33;2.10;;;1.30;;
75603;SDS011;64187;51.010;13.792;2023-04-03T12:52:39;3.60;;;1.40;;
75603;SDS011;64187;51.010;13.792;2023-04-03T12:57:42;2.65;;;1.30;;
75603;SDS011;64187;51.010;13.792;2023-04-03T13:02:43;2.15;;;1.25;;
75603;SDS011;64187;51.010;13.792;2023-04-03T13:07:48;1.75;;;1.15;;
75603;SDS011;64187;51.010;13.792;2023-04-03T13:13:06;2.25;;;1.15;;
75603;SDS011;64187;51.010;13.792;2023-04-03T13:23:40;2.55;;;1.10;;
75603;SDS011;64187;51.010;13.792;2023-04-03T13:28:43;1.15;;;0.70;;
75603;SDS011;64187;51.010;13.792;2023-04-03T13:54:39;3.67;;;1.20;;
75603;SDS011;64187;51.010;13.792;2023-04-03T13:59:38;1.30;;;0.90;;
75603;SDS011;64187;51.010;13.792;2023-04-03T14:09:35;2.08;;;1.23;;
75603;SDS011;64187;51.010;13.792;2023-04-03T14:14:36;1.60;;;1.33;;
75603;SDS011;64187;51.010;13.792;2023-04-03T14:19:37;3.38;;;1.58;;
75603;SDS011;64187;51.010;13.792;2023-04-03T14:24:36;3.55;;;1.35;;
75603;SDS011;64187;51.010;13.792;2023-04-03T14:29:35;2.10;;;1.25;;
75603;SDS011;64187;51.010;13.792;2023-04-03T14:34:34;2.58;;;1.08;;
75603;SDS011;64187;51.010;13.792;2023-04-03T14:39:33;1.85;;;1.20;;
75603;SDS011;64187;51.010;13.792;2023-04-03T14:44:32;3.40;;;1.10;;
75603;SDS011;64187;51.010;13.792;2023-04-03T14:49:31;4.50;;;0.95;;
75603;SDS011;64187;51.010;13.792;2023-04-03T14:54:30;2.42;;;0.90;;
75603;SDS011;64187;51.010;13.792;2023-04-03T14:59:29;3.80;;;1.00;;
75603;SDS011;64187;51.010;13.792;2023-04-03T15:04:29;4.15;;;1.58;;
75603;SDS011;64187;51.010;13.792;2023-04-03T15:09:28;1.50;;;0.90;;
75603;SDS011;64187;51.010;13.792;2023-04-03T15:14:27;2.80;;;1.30;;
75603;SDS011;64187;51.010;13.792;2023-04-03T15:19:40;1.88;;;1.10;;
75603;SDS011;64187;51.010;13.792;2023-04-03T15:24:39;4.03;;;1.27;;
75603;SDS011;64187;51.010;13.792;2023-04-03T15:29:38;1.42;;;0.80;;
75603;SDS011;64187;51.010;13.792;2023-04-03T15:34:38;2.40;;;1.33;;
75603;SDS011;64187;51.010;13.792;2023-04-03T15:39:38;1.65;;;0.90;;
75603;SDS011;64187;51.010;13.792;2023-04-03T15:44:36;3.15;;;1.30;;
75603;SDS011;64187;51.010;13.792;2023-04-03T15:49:35;3.67;;;1.40;;
75603;SDS011;64187;51.010;13.792;2023-04-03T15:54:35;3.17;;;1.63;;
75603;SDS011;64187;51.010;13.792;2023-04-03T15:59:33;3.30;;;1.30;;
75603;SDS011;64187;51.010;13.792;2023-04-03T16:04:32;3.20;;;1.35;;
75603;SDS011;64187;51.010;13.792;2023-04-03T16:09:32;2.95;;;1.00;;
75603;SDS011;64187;51.010;13.792;2023-04-03T16:14:32;1.42;;;0.98;;
75603;SDS011;64187;51.010;13.792;2023-04-03T16:19:31;2.92;;;1.08;;
75603;SDS011;64187;51.010;13.792;2023-04-03T16:24:30;1.63;;;1.17;;
75603;SDS011;64187;51.010;13.792;2023-04-03T16:29:30;4.07;;;0.88;;
75603;SDS011;64187;51.010;13.792;2023-04-03T16:34:29;3.17;;;1.25;;
75603;SDS011;64187;51.010;13.792;2023-04-03T16:39:31;2.33;;;0.80;;
75603;SDS011;64187;51.010;13.792;2023-04-03T16:44:30;2.53;;;1.00;;
75603;SDS011;64187;51.010;13.792;2023-04-03T16:49:29;2.80;;;1.30;;
75603;SDS011;64187;51.010;13.792;2023-04-03T16:54:31;2.72;;;1.15;;
75603;SDS011;64187;51.010;13.792;2023-04-03T16:59:30;4.28;;;1.30;;
75603;SDS011;64187;51.010;13.792;2023-04-03T17:04:29;1.95;;;0.95;;
75603;SDS011;64187;51.010;13.792;2023-04-03T17:09:28;3.42;;;1.27;;
75603;SDS011;64187;51.010;13.792;2023-04-03T17:14:27;2.05;;;1.08;;
75603;SDS011;64187;51.010;13.792;2023-04-03T17:19:25;3.05;;;1.52;;
75603;SDS011;64187;51.010;13.792;2023-04-03T17:24:26;2.28;;;1.27;;
75603;SDS011;64187;51.010;13.792;2023-04-03T17:29:26;5.20;;;1.58;;
75603;SDS011;64187;51.010;13.792;2023-04-03T17:34:24;3.00;;;1.27;;
75603;SDS011;64187;51.010;13.792;2023-04-03T17:39:23;2.40;;;1.10;;
75603;SDS011;64187;51.010;13.792;2023-04-03T17:44:23;2.78;;;1.52;;
75603;SDS011;64187;51.010;13.792;2023-04-03T17:49:21;1.30;;;1.20;;
75603;SDS011;64187;51.010;13.792;2023-04-03T17:54:21;4.05;;;1.15;;
75603;SDS011;64187;51.010;13.792;2023-04-03T17:59:20;4.38;;;1.65;;
75603;SDS011;64187;51.010;13.792;2023-04-03T18:04:19;2.55;;;1.25;;
75603;SDS011;64187;51.010;13.792;2023-04-03T18:09:19;3.70;;;1.33;;
75603;SDS011;64187;51.010;13.792;2023-04-03T18:14:21;3.45;;;1.45;;
75603;SDS011;64187;51.010;13.792;2023-04-03T18:19:23;3.50;;;1.85;;
75603;SDS011;64187;51.010;13.792;2023-04-03T18:29:27;4.00;;;1.45;;
75603;SDS011;64187;51.010;13.792;2023-04-03T18:34:29;2.90;;;1.65;;
75603;SDS011;64187;51.010;13.792;2023-04-03T18:39:28;2.28;;;1.67;;
75603;SDS011;64187;51.010;13.792;2023-04-03T18:44:27;4.10;;;1.75;;
75603;SDS011;64187;51.010;13.792;2023-04-03T18:49:30;3.60;;;1.38;;
75603;SDS011;64187;51.010;13.792;2023-04-03T18:54:31;2.55;;;1.67;;
75603;SDS011;64187;51.010;13.792;2023-04-03T18:59:30;3.42;;;1.33;;
75603;SDS011;64187;51.010;13.792;2023-04-03T19:04:29;3.67;;;1.23;;
75603;SDS011;64187;51.010;13.792;2023-04-03T19:09:28;3.00;;;1.80;;
75603;SDS011;64187;51.010;13.792;2023-04-03T19:14:27;5.63;;;2.17;;
75603;SDS011;64187;51.010;13.792;2023-04-03T19:19:26;2.35;;;1.80;;
75603;SDS011;64187;51.010;13.792;2023-04-03T19:24:25;7.38;;;2.55;;
75603;SDS011;64187;51.010;13.792;2023-04-03T19:29:24;3.20;;;1.75;;
75603;SDS011;64187;51.010;13.792;2023-04-03T19:34:23;4.70;;;2.28;;
75603;SDS011;64187;51.010;13.792;2023-04-03T19:39:22;1.98;;;1.77;;
75603;SDS011;64187;51.010;13.792;2023-04-03T19:44:21;3.08;;;2.10;;
75603;SDS011;64187;51.010;13.792;2023-04-03T19:49:20;3.15;;;1.67;;
75603;SDS011;64187;51.010;13.792;2023-04-03T19:54:19;5.18;;;2.40;;
75603;SDS011;64187;51.010;13.792;2023-04-03T19:59:19;3.28;;;1.75;;
75603;SDS011;64187;51.010;13.792;2023-04-03T20:04:18;2.90;;;2.10;;
75603;SDS011;64187;51.010;13.792;2023-04-03T20:09:17;4.47;;;2.45;;
75603;SDS011;64187;51.010;13.792;2023-04-03T20:14:16;5.00;;;2.47;;
75603;SDS011;64187;51.010;13.792;2023-04-03T20:19:16;6.22;;;2.80;;
75603;SDS011;64187;51.010;13.792;2023-04-03T20:24:15;5.03;;;2.58;;
75603;SDS011;64187;51.010;13.792;2023-04-03T20:29:15;4.20;;;2.70;;
75603;SDS011;64187;51.010;13.792;2023-04-03T20:34:15;3.50;;;2.28;;
75603;SDS011;64187;51.010;13.792;2023-04-03T20:39:14;3.05;;;2.38;;
75603;SDS011;64187;51.010;13.792;2023-04-03T20:44:14;5.25;;;2.08;;
75603;SDS011;64187;51.010;13.792;2023-04-03T20:49:15;4.85;;;2.67;;
75603;SDS011;64187;51.010;13.792;2023-04-03T20:54:13;6.90;;;2.88;;
75603;SDS011;64187;51.010;13.792;2023-04-03T20:59:14;5.50;;;2.65;;
75603;SDS011;64187;51.010;13.792;2023-04-03T21:04:20;3.53;;;2.00;;
75603;SDS011;64187;51.010;13.792;2023-04-03T21:20:38;4.75;;;2.75;;
75603;SDS011;64187;51.010;13.792;2023-04-03T21:25:37;4.03;;;2.70;;
75603;SDS011;64187;51.010;13.792;2023-04-03T21:30:36;3.70;;;2.92;;
75603;SDS011;64187;51.010;13.792;2023-04-03T21:35:35;3.83;;;2.17;;
75603;SDS011;64187;51.010;13.792;2023-04-03T21:40:34;4.15;;;2.17;;
75603;SDS011;64187;51.010;13.792;2023-04-03T21:45:33;5.25;;;2.38;;
75603;SDS011;64187;51.010;13.792;2023-04-03T21:50:32;4.00;;;2.08;;
75603;SDS011;64187;51.010;13.792;2023-04-03T21:55:31;4.32;;;2.22;;
75603;SDS011;64187;51.010;13.792;2023-04-03T22:00:29;5.40;;;2.47;;
75603;SDS011;64187;51.010;13.792;2023-04-03T22:05:30;3.03;;;2.00;;
75603;SDS011;64187;51.010;13.792;2023-04-03T22:10:29;7.15;;;2.63;;
75603;SDS011;64187;51.010;13.792;2023-04-03T22:15:29;6.43;;;2.22;;
75603;SDS011;64187;51.010;13.792;2023-04-03T22:20:28;4.07;;;2.00;;
75603;SDS011;64187;51.010;13.792;2023-04-03T22:25:26;5.15;;;1.92;;
75603;SDS011;64187;51.010;13.792;2023-04-03T22:30:25;4.25;;;1.98;;
75603;SDS011;64187;51.010;13.792;2023-04-03T22:35:24;4.13;;;2.28;;
75603;SDS011;64187;51.010;13.792;2023-04-03T22:40:24;3.22;;;1.88;;
75603;SDS011;64187;51.010;13.792;2023-04-03T22:45:23;4.28;;;2.50;;
75603;SDS011;64187;51.010;13.792;2023-04-03T22:50:22;3.72;;;1.70;;
75603;SDS011;64187;51.010;13.792;2023-04-03T22:55:21;2.63;;;1.75;;
75603;SDS011;64187;51.010;13.792;2023-04-03T23:00:21;3.60;;;1.85;;
75603;SDS011;64187;51.010;13.792;2023-04-03T23:05:20;3.28;;;1.65;;
75603;SDS011;64187;51.010;13.792;2023-04-03T23:10:20;2.15;;;1.70;;
75603;SDS011;64187;51.010;13.792;2023-04-03T23:15:19;2.25;;;1.80;;
75603;SDS011;64187;51.010;13.792;2023-04-03T23:20:18;4.20;;;1.58;;
75603;SDS011;64187;51.010;13.792;2023-04-03T23:25:17;3.10;;;1.92;;
75603;SDS011;64187;51.010;13.792;2023-04-03T23:30:15;2.15;;;1.73;;
75603;SDS011;64187;51.010;13.792;2023-04-03T23:35:14;4.05;;;1.58;;
75603;SDS011;64187;51.010;13.792;2023-04-03T23:40:14;4.05;;;2.05;;
75603;SDS011;64187;51.010;13.792;2023-04-03T23:45:13;4.78;;;1.58;;
75603;SDS011;64187;51.010;13.792;2023-04-03T23:50:12;3.45;;;1.80;;
75603;SDS011;64187;51.010;13.792;2023-04-03T23:55:11;3.70;;;1.55;;
